Kingfield, Maine
Current Conditions -  °F | °C
As of 8:35 AM on Saturday 25 Oct 2014 (Local Time) from KWVL Reporting Station
Few Clouds Few Clouds  
Wind Chill:   Ceiling: Unl
Heat Index:   Visibility: 10mi
Dew Point:   Wind: 0mph
Humidity: 66%   Direction: NA
Pressure: 29.66"   Gusts: NA
Location:  44.96°N, 70.15°W
Report Text: KWVL 251235Z 00000KT 10SM FEW090 07/01 A2966 RMK AO1
Loading
Personal Weather Stations






























Interactive Weather Map
Tropical Storm Tracking
New forecast layout! Learn more

10-Day Weather Forecast

Advertisements
Track Severe Weather on mobile